Time;durP1;ratioP1;P1;durP2;ratioP2;P2;SDS_P1;SDS_P2;PMS_P1;PMS_P2;Temp;Humidity;BMP_temperature;BMP_pressure;BME280_temperature;BME280_humidity;BME280_pressure;Samples;Min_cycle;Max_cycle;Signal;HPM_P1;HPM_P2
2022/10/30 00:00:24;;;;;;;20.70;8.32;;;;;;;;;;4997846;28;20898;-66
2022/10/30 00:02:49;;;;;;;19.42;8.15;;;;;;;;;;4998176;28;20047;-67
2022/10/30 00:05:15;;;;;;;20.98;9.20;;;;;;;;;;4996588;28;20029;-67
2022/10/30 00:07:40;;;;;;;20.90;8.65;;;;;;;;;;5001669;28;20044;-65
2022/10/30 00:10:06;;;;;;;17.60;8.30;;;;;;;;;;4996486;28;20126;-66
2022/10/30 00:12:31;;;;;;;20.83;8.15;;;;;;;;;;4998353;28;20625;-66
2022/10/30 00:14:57;;;;;;;22.30;8.80;;;;;;;;;;4994540;28;20056;-67
2022/10/30 00:17:22;;;;;;;18.88;8.45;;;;;;;;;;4998451;28;20501;-66
2022/10/30 00:19:48;;;;;;;22.52;8.55;;;;;;;;;;4996974;28;20053;-66
2022/10/30 00:22:13;;;;;;;21.75;8.40;;;;;;;;;;4999603;28;20029;-66
2022/10/30 00:24:41;;;;;;;22.02;7.95;;;;;;;;;;4995623;28;20033;-66
2022/10/30 00:27:06;;;;;;;20.98;8.48;;;;;;;;;;4997801;28;20683;-73
2022/10/30 00:29:31;;;;;;;19.75;7.80;;;;;;;;;;4997858;28;20092;-72
2022/10/30 00:31:59;;;;;;;21.90;8.38;;;;;;;;;;4998715;28;20087;-71
2022/10/30 00:34:24;;;;;;;19.33;8.60;;;;;;;;;;4998803;28;20033;-72
2022/10/30 00:36:49;;;;;;;18.23;7.80;;;;;;;;;;5014133;28;20063;-72
2022/10/30 00:39:15;;;;;;;19.42;8.52;;;;;;;;;;5013174;28;20037;-73
2022/10/30 00:41:40;;;;;;;24.13;8.63;;;;;;;;;;5001727;28;20034;-71
2022/10/30 00:44:25;;;;;;;18.35;8.60;;;;;;;;;;5001110;28;20040;-71
2022/10/30 00:46:50;;;;;;;16.10;7.78;;;;;;;;;;4997629;28;20097;-71
2022/10/30 00:49:16;;;;;;;18.45;8.15;;;;;;;;;;4997563;28;22281;-73
2022/10/30 00:51:44;;;;;;;22.75;8.90;;;;;;;;;;4997797;28;20049;-73
2022/10/30 00:54:09;;;;;;;23.98;9.40;;;;;;;;;;5006429;28;20482;-73
2022/10/30 00:56:35;;;;;;;20.63;8.82;;;;;;;;;;4999379;28;20047;-72
2022/10/30 00:59:02;;;;;;;19.20;9.00;;;;;;;;;;4996150;28;20038;-72
2022/10/30 01:01:28;;;;;;;22.60;9.38;;;;;;;;;;4999873;28;20037;-73
2022/10/30 01:03:58;;;;;;;23.08;10.20;;;;;;;;;;4996910;28;20037;-73
2022/10/30 01:06:25;;;;;;;25.23;12.00;;;;;;;;;;4999506;28;20061;-72
2022/10/30 01:08:52;;;;;;;22.25;10.18;;;;;;;;;;5000525;28;20690;-73
2022/10/30 01:11:17;;;;;;;28.13;12.43;;;;;;;;;;4999091;28;20774;-72
2022/10/30 01:13:44;;;;;;;27.52;17.20;;;;;;;;;;4997424;28;20123;-73
2022/10/30 01:16:28;;;;;;;36.03;17.08;;;;;;;;;;4999356;28;20053;-71
2022/10/30 01:18:56;;;;;;;30.60;15.55;;;;;;;;;;5000437;28;20034;-72
2022/10/30 01:21:41;;;;;;;27.95;15.05;;;;;;;;;;5001168;28;20048;-72
2022/10/30 01:24:18;;;;;;;22.45;10.65;;;;;;;;;;5003277;28;20057;-72
2022/10/30 01:26:47;;;;;;;23.45;10.23;;;;;;;;;;5000106;28;20033;-72
2022/10/30 01:29:21;;;;;;;23.00;10.15;;;;;;;;;;5004106;28;20033;-72
2022/10/30 01:32:05;;;;;;;22.08;9.25;;;;;;;;;;5004714;28;20063;-74
2022/10/30 01:34:43;;;;;;;21.02;9.20;;;;;;;;;;5005436;28;20048;-73
2022/10/30 01:37:28;;;;;;;27.33;9.75;;;;;;;;;;5003016;28;20500;-72
2022/10/30 01:39:54;;;;;;;20.85;10.02;;;;;;;;;;4998969;28;20740;-73
2022/10/30 01:42:38;;;;;;;18.92;10.00;;;;;;;;;;5006259;28;20040;-73
2022/10/30 01:45:03;;;;;;;22.38;9.30;;;;;;;;;;5002475;28;20197;-74
2022/10/30 01:47:41;;;;;;;18.48;9.10;;;;;;;;;;5004722;28;20096;-73
2022/10/30 01:50:27;;;;;;;23.08;9.80;;;;;;;;;;4984489;28;20040;-71
2022/10/30 01:52:56;;;;;;;20.27;9.25;;;;;;;;;;4985415;28;20026;-72
2022/10/30 01:55:37;;;;;;;24.55;10.48;;;;;;;;;;4982838;28;20454;-72
2022/10/30 01:58:11;;;;;;;22.27;9.80;;;;;;;;;;4990584;28;20042;-72
2022/10/30 02:00:39;;;;;;;24.55;10.75;;;;;;;;;;4985165;28;20068;-72
2022/10/30 02:03:04;;;;;;;23.98;9.95;;;;;;;;;;4988253;28;20044;-72
2022/10/30 02:05:39;;;;;;;24.90;10.27;;;;;;;;;;5030734;28;20073;-73
2022/10/30 02:08:05;;;;;;;25.27;10.75;;;;;;;;;;5018933;28;21101;-73
2022/10/30 02:10:32;;;;;;;22.45;11.43;;;;;;;;;;5014040;28;20064;-73
2022/10/30 02:12:57;;;;;;;23.85;10.70;;;;;;;;;;5007240;28;20057;-71
2022/10/30 02:15:25;;;;;;;23.60;11.32;;;;;;;;;;5004462;28;20055;-72
2022/10/30 02:17:51;;;;;;;23.88;11.75;;;;;;;;;;5010046;28;20029;-73
2022/10/30 02:20:17;;;;;;;27.17;11.63;;;;;;;;;;5010528;28;21253;-66
2022/10/30 02:22:43;;;;;;;22.20;10.55;;;;;;;;;;4999579;28;20040;-67
2022/10/30 02:25:08;;;;;;;27.10;11.38;;;;;;;;;;4998335;28;20041;-66
2022/10/30 02:27:34;;;;;;;30.17;11.60;;;;;;;;;;5002881;28;20040;-66
2022/10/30 02:29:59;;;;;;;26.98;11.40;;;;;;;;;;4998230;28;20087;-65
2022/10/30 02:32:25;;;;;;;25.52;10.70;;;;;;;;;;4999591;28;20033;-66
2022/10/30 02:34:50;;;;;;;25.88;11.63;;;;;;;;;;4999157;28;20041;-65
2022/10/30 02:37:15;;;;;;;21.77;10.82;;;;;;;;;;5000175;28;20033;-66
2022/10/30 02:39:40;;;;;;;23.00;11.15;;;;;;;;;;4996826;28;20409;-72
2022/10/30 02:42:07;;;;;;;23.35;11.05;;;;;;;;;;5006144;28;21719;-72
2022/10/30 02:44:33;;;;;;;26.70;11.48;;;;;;;;;;4997214;28;20196;-74
2022/10/30 02:47:00;;;;;;;23.40;11.18;;;;;;;;;;4998133;28;20072;-72
2022/10/30 02:49:25;;;;;;;20.33;11.38;;;;;;;;;;5000154;28;20045;-72
2022/10/30 02:51:50;;;;;;;33.03;12.23;;;;;;;;;;5015354;28;20030;-72
2022/10/30 02:54:18;;;;;;;28.30;11.48;;;;;;;;;;5002009;28;21119;-72
2022/10/30 02:56:43;;;;;;;27.77;11.63;;;;;;;;;;4999535;28;20140;-71
2022/10/30 02:59:08;;;;;;;26.33;11.90;;;;;;;;;;5001359;28;20060;-73
2022/10/30 03:01:36;;;;;;;23.42;10.95;;;;;;;;;;4999193;28;20025;-73
2022/10/30 03:04:01;;;;;;;24.95;11.68;;;;;;;;;;5001478;28;20714;-74
2022/10/30 03:06:27;;;;;;;24.55;11.77;;;;;;;;;;4999628;28;20057;-73
2022/10/30 03:08:53;;;;;;;22.08;11.57;;;;;;;;;;5002228;28;22086;-74
2022/10/30 03:11:18;;;;;;;25.63;11.77;;;;;;;;;;4984845;28;20132;-73
2022/10/30 03:13:45;;;;;;;23.70;11.75;;;;;;;;;;5001614;28;20040;-73
2022/10/30 03:16:12;;;;;;;24.95;11.68;;;;;;;;;;5004520;28;20328;-73
2022/10/30 03:18:40;;;;;;;25.15;12.25;;;;;;;;;;5000150;28;20114;-75
2022/10/30 03:21:07;;;;;;;25.75;13.43;;;;;;;;;;4997368;28;20091;-72
2022/10/30 03:23:33;;;;;;;34.70;16.52;;;;;;;;;;4997773;28;20042;-73
2022/10/30 03:26:01;;;;;;;37.88;22.08;;;;;;;;;;4997586;28;20120;-71
2022/10/30 03:28:27;;;;;;;41.92;20.92;;;;;;;;;;4998310;28;20029;-72
2022/10/30 03:31:04;;;;;;;35.97;20.92;;;;;;;;;;4999061;28;20037;-71
2022/10/30 03:33:29;;;;;;;38.97;20.92;;;;;;;;;;4998220;28;20037;-71
2022/10/30 03:35:55;;;;;;;44.13;23.55;;;;;;;;;;4998961;28;20057;-73
2022/10/30 03:38:21;;;;;;;43.97;23.92;;;;;;;;;;4997367;28;20550;-71
2022/10/30 03:40:46;;;;;;;42.17;20.08;;;;;;;;;;4999298;28;22273;-72
2022/10/30 03:43:11;;;;;;;47.67;20.63;;;;;;;;;;4999333;28;20048;-74
2022/10/30 03:45:36;;;;;;;47.33;19.90;;;;;;;;;;5000855;28;20039;-73
2022/10/30 03:48:03;;;;;;;46.70;20.80;;;;;;;;;;5001748;28;20037;-72
2022/10/30 03:50:29;;;;;;;45.65;19.73;;;;;;;;;;5003630;28;20442;-72
2022/10/30 03:52:54;;;;;;;44.10;17.95;;;;;;;;;;5007476;28;20037;-72
2022/10/30 03:55:20;;;;;;;46.00;18.45;;;;;;;;;;5008491;28;20072;-73
2022/10/30 03:57:46;;;;;;;39.22;17.10;;;;;;;;;;5005388;28;20194;-72
2022/10/30 04:00:13;;;;;;;43.22;17.60;;;;;;;;;;5010246;28;20115;-75
2022/10/30 04:02:38;;;;;;;35.30;18.52;;;;;;;;;;5004484;28;20739;-73
2022/10/30 04:05:04;;;;;;;38.85;18.75;;;;;;;;;;5002068;28;20051;-72
2022/10/30 04:07:29;;;;;;;40.35;21.52;;;;;;;;;;5002751;28;20036;-73
2022/10/30 04:09:54;;;;;;;45.28;21.23;;;;;;;;;;4999565;28;20068;-73
2022/10/30 04:12:20;;;;;;;43.22;19.75;;;;;;;;;;5002505;28;20942;-73
2022/10/30 04:14:45;;;;;;;41.97;20.00;;;;;;;;;;5005990;28;20040;-73
2022/10/30 04:17:11;;;;;;;44.38;20.73;;;;;;;;;;5004895;28;20045;-72
2022/10/30 04:19:36;;;;;;;39.58;20.63;;;;;;;;;;5004364;28;20111;-73
2022/10/30 04:22:02;;;;;;;40.38;21.10;;;;;;;;;;5009563;28;20493;-73
2022/10/30 04:24:27;;;;;;;37.17;22.13;;;;;;;;;;5010830;28;20136;-71
2022/10/30 04:26:52;;;;;;;44.10;22.38;;;;;;;;;;5001069;28;20133;-72
2022/10/30 04:29:17;;;;;;;35.78;19.65;;;;;;;;;;5006057;28;20587;-71
2022/10/30 04:31:43;;;;;;;40.15;20.75;;;;;;;;;;5004661;28;20045;-72
2022/10/30 04:34:08;;;;;;;34.28;19.52;;;;;;;;;;5001955;28;20140;-66
2022/10/30 04:36:35;;;;;;;39.50;19.55;;;;;;;;;;5001327;28;20047;-66
2022/10/30 04:39:01;;;;;;;41.92;19.45;;;;;;;;;;4994552;28;20110;-66
2022/10/30 04:41:29;;;;;;;36.63;18.00;;;;;;;;;;4998640;28;20040;-66
2022/10/30 04:43:55;;;;;;;41.38;18.38;;;;;;;;;;4997147;28;20095;-66
2022/10/30 04:46:20;;;;;;;36.35;17.52;;;;;;;;;;4997876;28;20489;-66
2022/10/30 04:48:47;;;;;;;33.80;17.98;;;;;;;;;;4998186;28;20041;-66
2022/10/30 04:51:13;;;;;;;35.65;17.63;;;;;;;;;;5000880;28;20037;-66
2022/10/30 04:53:41;;;;;;;34.47;17.05;;;;;;;;;;5017122;28;20560;-66
2022/10/30 04:56:09;;;;;;;35.70;17.83;;;;;;;;;;4988750;28;20075;-65
2022/10/30 04:58:34;;;;;;;39.05;18.13;;;;;;;;;;5003403;28;20047;-66
2022/10/30 05:01:01;;;;;;;37.75;18.05;;;;;;;;;;5003080;28;20140;-65
2022/10/30 05:03:26;;;;;;;34.92;17.98;;;;;;;;;;5001034;28;20143;-66
2022/10/30 05:06:15;;;;;;;43.03;19.80;;;;;;;;;;5002198;28;20084;-65
2022/10/30 05:08:43;;;;;;;41.72;18.90;;;;;;;;;;4999113;28;20037;-66
2022/10/30 05:11:08;;;;;;;40.20;19.10;;;;;;;;;;5001572;28;20145;-65
2022/10/30 05:13:34;;;;;;;31.85;17.15;;;;;;;;;;4999223;28;20037;-65
2022/10/30 05:16:01;;;;;;;37.40;18.05;;;;;;;;;;5003369;28;20063;-65
2022/10/30 05:18:26;;;;;;;42.30;18.88;;;;;;;;;;5005257;28;20877;-66
2022/10/30 05:20:52;;;;;;;34.80;17.45;;;;;;;;;;5002765;28;20060;-66
2022/10/30 05:23:20;;;;;;;38.17;17.80;;;;;;;;;;5000527;28;20037;-66
2022/10/30 05:25:45;;;;;;;42.63;20.60;;;;;;;;;;4998971;28;20686;-66
2022/10/30 05:28:13;;;;;;;35.85;19.42;;;;;;;;;;5001559;28;20033;-66
2022/10/30 05:30:38;;;;;;;39.75;19.60;;;;;;;;;;5003094;28;20144;-66
2022/10/30 05:33:04;;;;;;;38.80;20.88;;;;;;;;;;5001401;28;21023;-66
2022/10/30 05:35:31;;;;;;;46.83;23.30;;;;;;;;;;4998323;28;21033;-66
2022/10/30 05:37:57;;;;;;;49.25;26.33;;;;;;;;;;5001010;28;20143;-67
2022/10/30 05:40:22;;;;;;;47.20;22.45;;;;;;;;;;5001121;28;20037;-67
2022/10/30 05:42:47;;;;;;;40.90;20.50;;;;;;;;;;4999555;28;20147;-67
2022/10/30 05:45:16;;;;;;;50.88;23.33;;;;;;;;;;5000575;28;22523;-67
2022/10/30 05:47:42;;;;;;;65.35;27.52;;;;;;;;;;4996336;28;20576;-67
2022/10/30 05:50:11;;;;;;;63.40;28.33;;;;;;;;;;5001447;28;20025;-67
2022/10/30 05:52:38;;;;;;;65.65;29.75;;;;;;;;;;5004266;28;20037;-67
2022/10/30 05:55:04;;;;;;;59.35;25.80;;;;;;;;;;5003022;28;20766;-66
2022/10/30 05:57:31;;;;;;;46.22;22.23;;;;;;;;;;5000918;28;20037;-66
2022/10/30 05:59:57;;;;;;;52.55;23.02;;;;;;;;;;4999486;28;21215;-67
2022/10/30 06:02:23;;;;;;;55.45;25.55;;;;;;;;;;4999705;28;20067;-67
2022/10/30 06:04:48;;;;;;;49.88;25.58;;;;;;;;;;4998050;28;20037;-67
2022/10/30 06:07:13;;;;;;;53.97;24.67;;;;;;;;;;4999654;28;20034;-70
2022/10/30 06:09:39;;;;;;;58.88;27.88;;;;;;;;;;5000297;28;20033;-70
2022/10/30 06:12:04;;;;;;;71.47;33.90;;;;;;;;;;5001571;28;20028;-69
2022/10/30 06:14:30;;;;;;;84.38;38.63;;;;;;;;;;4999643;28;20065;-70
2022/10/30 06:16:56;;;;;;;81.10;41.17;;;;;;;;;;5000641;28;20140;-70
2022/10/30 06:19:21;;;;;;;77.68;39.85;;;;;;;;;;4999092;28;20836;-70
2022/10/30 06:21:46;;;;;;;79.30;41.33;;;;;;;;;;5010199;28;20071;-70
2022/10/30 06:24:12;;;;;;;67.97;37.63;;;;;;;;;;4985636;28;20057;-67
2022/10/30 06:26:37;;;;;;;67.78;36.05;;;;;;;;;;4999341;28;20087;-67
2022/10/30 06:29:03;;;;;;;72.38;35.20;;;;;;;;;;5000067;28;20111;-67
2022/10/30 06:31:29;;;;;;;67.32;32.70;;;;;;;;;;4999466;28;20039;-66
2022/10/30 06:33:54;;;;;;;63.58;34.05;;;;;;;;;;4998622;28;20041;-66
2022/10/30 06:36:20;;;;;;;66.70;36.55;;;;;;;;;;5001811;28;20170;-66
2022/10/30 06:38:46;;;;;;;67.47;33.42;;;;;;;;;;4996079;28;20037;-70
2022/10/30 06:41:11;;;;;;;60.08;32.33;;;;;;;;;;4998669;28;20750;-70
2022/10/30 06:43:37;;;;;;;66.53;32.45;;;;;;;;;;4994149;28;20473;-69
2022/10/30 06:46:02;;;;;;;87.70;48.28;;;;;;;;;;4994908;28;20091;-70
2022/10/30 06:48:28;;;;;;;93.60;48.42;;;;;;;;;;4992323;28;20033;-70
2022/10/30 06:50:57;;;;;;;85.18;48.00;;;;;;;;;;4993383;28;20852;-70
2022/10/30 06:53:23;;;;;;;80.60;45.78;;;;;;;;;;4996713;28;20636;-69
2022/10/30 06:55:55;;;;;;;82.90;45.70;;;;;;;;;;4993808;28;20819;-70
2022/10/30 06:58:20;;;;;;;;;;;;;;;;;;4954312;28;1276377;-70
2022/10/30 07:00:46;;;;;;;97.40;52.40;;;;;;;;;;5004294;28;19923;-70
2022/10/30 07:03:14;;;;;;;90.78;49.78;;;;;;;;;;4995939;28;20044;-70
2022/10/30 07:05:39;;;;;;;73.90;39.92;;;;;;;;;;4997095;28;20424;-71
2022/10/30 07:08:05;;;;;;;66.45;37.22;;;;;;;;;;4997116;28;20044;-71
2022/10/30 07:10:31;;;;;;;57.20;29.83;;;;;;;;;;4993522;28;20283;-71
2022/10/30 07:12:57;;;;;;;53.63;24.35;;;;;;;;;;4980819;28;20745;-69
2022/10/30 07:15:23;;;;;;;43.22;19.92;;;;;;;;;;4994460;28;20041;-69
2022/10/30 07:17:59;;;;;;;35.53;18.55;;;;;;;;;;4995580;28;20136;-69
2022/10/30 07:20:29;;;;;;;36.22;17.15;;;;;;;;;;4993998;28;20418;-70
2022/10/30 07:22:55;;;;;;;33.85;16.15;;;;;;;;;;4993260;28;20036;-69
2022/10/30 07:25:21;;;;;;;26.40;16.05;;;;;;;;;;4997005;28;20068;-70
2022/10/30 07:27:47;;;;;;;28.05;16.65;;;;;;;;;;4996488;28;20069;-69
2022/10/30 07:30:13;;;;;;;34.42;17.10;;;;;;;;;;4996290;28;20053;-70
2022/10/30 07:32:39;;;;;;;32.97;16.63;;;;;;;;;;4997031;28;20182;-70
2022/10/30 07:35:04;;;;;;;31.88;16.27;;;;;;;;;;4983378;28;20037;-70
2022/10/30 07:37:30;;;;;;;29.38;15.68;;;;;;;;;;4995200;28;20044;-71
2022/10/30 07:39:55;;;;;;;30.83;16.77;;;;;;;;;;4996830;28;20029;-70
2022/10/30 07:42:21;;;;;;;41.13;19.23;;;;;;;;;;4995830;28;20588;-70
2022/10/30 07:44:46;;;;;;;34.92;19.90;;;;;;;;;;4983724;28;20116;-70
2022/10/30 07:47:11;;;;;;;38.70;20.05;;;;;;;;;;4995559;28;21379;-70
2022/10/30 07:49:39;;;;;;;45.95;30.92;;;;;;;;;;4995301;28;20186;-70
2022/10/30 07:52:04;;;;;;;51.05;34.00;;;;;;;;;;4998733;28;20044;-70
2022/10/30 07:54:29;;;;;;;72.40;48.67;;;;;;;;;;4998946;28;20451;-70
2022/10/30 07:56:55;;;;;;;86.07;63.13;;;;;;;;;;4994862;28;20052;-71
2022/10/30 07:59:20;;;;;;;90.25;49.30;;;;;;;;;;4995906;28;20618;-70
2022/10/30 08:01:45;;;;;;;70.05;38.78;;;;;;;;;;5011526;28;20593;-71
2022/10/30 08:04:13;;;;;;;59.80;27.25;;;;;;;;;;4995018;28;20040;-70
2022/10/30 08:06:38;;;;;;;55.47;25.73;;;;;;;;;;4994371;28;20077;-70
2022/10/30 08:09:04;;;;;;;60.60;25.67;;;;;;;;;;5009884;28;20219;-75
2022/10/30 08:11:30;;;;;;;64.28;25.27;;;;;;;;;;5013048;28;21058;-77
2022/10/30 08:13:56;;;;;;;56.67;24.05;;;;;;;;;;5019020;28;20287;-76
2022/10/30 08:16:21;;;;;;;60.58;23.85;;;;;;;;;;5041209;28;20055;-75
2022/10/30 08:18:47;;;;;;;58.15;22.50;;;;;;;;;;5043474;28;20056;-75
2022/10/30 08:21:13;;;;;;;40.20;17.33;;;;;;;;;;5038027;28;20040;-73
2022/10/30 08:23:38;;;;;;;36.05;16.23;;;;;;;;;;5025668;28;20045;-75
2022/10/30 08:26:04;;;;;;;36.25;15.95;;;;;;;;;;5007120;28;20854;-76
2022/10/30 08:28:30;;;;;;;30.42;15.02;;;;;;;;;;5028685;28;20474;-75
2022/10/30 08:30:58;;;;;;;32.00;15.68;;;;;;;;;;5043339;28;20036;-75
2022/10/30 08:33:25;;;;;;;36.08;15.82;;;;;;;;;;5039995;28;20036;-75
2022/10/30 08:35:55;;;;;;;35.40;15.25;;;;;;;;;;5027974;28;20261;-75
2022/10/30 08:38:21;;;;;;;33.35;15.15;;;;;;;;;;5016329;28;20777;-76
2022/10/30 08:40:46;;;;;;;32.78;14.73;;;;;;;;;;5015640;28;20047;-76
2022/10/30 08:43:14;;;;;;;33.88;15.27;;;;;;;;;;5009349;28;20187;-73
2022/10/30 08:45:40;;;;;;;36.05;15.32;;;;;;;;;;5009794;28;20040;-74
2022/10/30 08:48:06;;;;;;;30.90;14.60;;;;;;;;;;5026795;28;20866;-75
2022/10/30 08:50:34;;;;;;;28.77;13.77;;;;;;;;;;5027463;28;20024;-74
2022/10/30 08:53:03;;;;;;;24.52;14.13;;;;;;;;;;5024849;28;20041;-69
2022/10/30 08:55:31;;;;;;;28.27;13.88;;;;;;;;;;4993398;28;20041;-73
2022/10/30 08:57:59;;;;;;;31.25;12.57;;;;;;;;;;5000401;28;20045;-75
2022/10/30 09:00:27;;;;;;;31.55;12.45;;;;;;;;;;5032904;28;20021;-75
2022/10/30 09:02:52;;;;;;;26.55;12.55;;;;;;;;;;5009085;28;20041;-74
2022/10/30 09:05:18;;;;;;;23.85;11.48;;;;;;;;;;5029426;28;20371;-74
2022/10/30 09:07:43;;;;;;;21.80;12.35;;;;;;;;;;5026537;28;20038;-74
2022/10/30 09:10:08;;;;;;;22.75;13.98;;;;;;;;;;5043062;28;20036;-74
2022/10/30 09:12:34;;;;;;;22.95;12.88;;;;;;;;;;5042577;28;20401;-73
2022/10/30 09:15:00;;;;;;;22.60;13.20;;;;;;;;;;5041058;28;20481;-74
2022/10/30 09:17:25;;;;;;;25.35;12.73;;;;;;;;;;5020554;28;20389;-75
2022/10/30 09:19:51;;;;;;;24.20;11.93;;;;;;;;;;5028762;28;20108;-75
2022/10/30 09:22:18;;;;;;;20.55;11.57;;;;;;;;;;5029913;28;20163;-73
2022/10/30 09:24:44;;;;;;;22.17;11.00;;;;;;;;;;5029441;28;20508;-74
2022/10/30 09:27:09;;;;;;;23.48;12.30;;;;;;;;;;5018004;28;20105;-76
2022/10/30 09:29:34;;;;;;;24.25;12.20;;;;;;;;;;5049581;28;20053;-77
2022/10/30 09:32:00;;;;;;;25.38;12.52;;;;;;;;;;5020245;28;20037;-75
2022/10/30 09:34:26;;;;;;;23.63;13.73;;;;;;;;;;5033275;28;20049;-75
2022/10/30 09:36:52;;;;;;;24.35;16.08;;;;;;;;;;5031569;28;20041;-76
2022/10/30 09:39:17;;;;;;;24.52;13.77;;;;;;;;;;5020290;28;20040;-77
2022/10/30 09:42:15;;;;;;;27.77;13.55;;;;;;;;;;5027147;28;20599;-76
2022/10/30 09:45:02;;;;;;;25.25;13.68;;;;;;;;;;5028482;28;20036;-76
2022/10/30 09:47:28;;;;;;;23.33;13.43;;;;;;;;;;5041106;28;20036;-75
2022/10/30 09:50:12;;;;;;;22.83;12.00;;;;;;;;;;5035365;28;20492;-78
2022/10/30 09:52:57;;;;;;;21.45;12.25;;;;;;;;;;5037126;28;20029;-74
2022/10/30 09:55:32;;;;;;;19.30;11.40;;;;;;;;;;5037528;28;20036;-76
2022/10/30 09:58:05;;;;;;;23.08;13.23;;;;;;;;;;5020824;28;20123;-74
2022/10/30 10:00:35;;;;;;;22.33;14.23;;;;;;;;;;5036187;28;20037;-74
2022/10/30 10:03:06;;;;;;;19.10;10.32;;;;;;;;;;5017135;28;20075;-72
2022/10/30 10:05:50;;;;;;;19.80;9.23;;;;;;;;;;4998820;28;20421;-72
2022/10/30 10:08:25;;;;;;;20.55;9.48;;;;;;;;;;4997997;28;20037;-69
2022/10/30 10:10:53;;;;;;;24.40;9.75;;;;;;;;;;5013655;28;20588;-68
2022/10/30 10:13:21;;;;;;;21.65;9.60;;;;;;;;;;4996155;28;20029;-68
2022/10/30 10:15:48;;;;;;;23.75;9.48;;;;;;;;;;4998406;28;20848;-69
2022/10/30 10:18:21;;;;;;;23.08;9.65;;;;;;;;;;4999422;28;20449;-70
2022/10/30 10:20:51;;;;;;;20.85;9.45;;;;;;;;;;4999679;28;20142;-70
2022/10/30 10:23:28;;;;;;;19.98;9.75;;;;;;;;;;5000871;28;20037;-73
2022/10/30 10:25:57;;;;;;;24.25;10.55;;;;;;;;;;4999889;28;20026;-72
2022/10/30 10:28:28;;;;;;;18.88;9.85;;;;;;;;;;4998819;28;20064;-73
2022/10/30 10:31:04;;;;;;;24.08;9.55;;;;;;;;;;4999898;28;20202;-72
2022/10/30 10:33:35;;;;;;;16.02;9.45;;;;;;;;;;4999965;28;20557;-74
2022/10/30 10:36:23;;;;;;;20.65;8.95;;;;;;;;;;4995748;28;20119;-77
2022/10/30 10:39:07;;;;;;;21.70;10.40;;;;;;;;;;5000822;28;20041;-75
2022/10/30 10:41:46;;;;;;;19.88;11.07;;;;;;;;;;4996830;28;20074;-74
2022/10/30 10:44:18;;;;;;;20.80;10.63;;;;;;;;;;5000836;28;20040;-71
2022/10/30 10:46:52;;;;;;;24.38;10.30;;;;;;;;;;4995042;28;20029;-70
2022/10/30 10:49:36;;;;;;;22.23;9.98;;;;;;;;;;4998702;28;20037;-73
2022/10/30 10:52:06;;;;;;;19.35;10.60;;;;;;;;;;4998569;28;20115;-72
2022/10/30 10:54:34;;;;;;;23.25;11.13;;;;;;;;;;5001099;28;20136;-73
2022/10/30 10:57:00;;;;;;;20.95;10.25;;;;;;;;;;5000703;28;20132;-73
2022/10/30 10:59:31;;;;;;;23.13;10.50;;;;;;;;;;5000692;28;20048;-73
2022/10/30 11:01:59;;;;;;;21.10;9.95;;;;;;;;;;5000478;28;20029;-73
2022/10/30 11:04:31;;;;;;;22.48;10.25;;;;;;;;;;4998272;28;21000;-74
2022/10/30 11:06:57;;;;;;;18.33;10.90;;;;;;;;;;4999756;28;20029;-72
2022/10/30 11:09:26;;;;;;;22.58;10.70;;;;;;;;;;4998801;28;20039;-75
2022/10/30 11:11:53;;;;;;;22.75;10.15;;;;;;;;;;4999686;28;20033;-73
2022/10/30 11:14:18;;;;;;;22.50;10.60;;;;;;;;;;4999790;28;20041;-73
2022/10/30 11:16:55;;;;;;;23.48;11.07;;;;;;;;;;4997999;28;20984;-73
2022/10/30 11:19:21;;;;;;;24.17;10.82;;;;;;;;;;4998969;28;20045;-70
2022/10/30 11:21:51;;;;;;;22.60;11.02;;;;;;;;;;4998674;28;20048;-67
2022/10/30 11:24:32;;;;;;;19.40;10.52;;;;;;;;;;4998004;28;20436;-68
2022/10/30 11:27:16;;;;;;;19.02;10.30;;;;;;;;;;4993765;28;20037;-68
2022/10/30 11:29:47;;;;;;;21.40;10.82;;;;;;;;;;4998891;28;20048;-71
2022/10/30 11:32:21;;;;;;;18.70;10.77;;;;;;;;;;4996033;28;20029;-68
2022/10/30 11:35:07;;;;;;;20.77;10.85;;;;;;;;;;4996885;28;20037;-70
2022/10/30 11:37:36;;;;;;;24.25;11.07;;;;;;;;;;4995174;28;20035;-68
2022/10/30 11:40:03;;;;;;;22.25;11.82;;;;;;;;;;4996534;28;20124;-70
2022/10/30 11:42:29;;;;;;;23.60;11.10;;;;;;;;;;4995877;28;20576;-69
2022/10/30 11:44:57;;;;;;;20.83;11.35;;;;;;;;;;4997584;28;20029;-70
2022/10/30 11:47:29;;;;;;;23.02;11.38;;;;;;;;;;4997046;28;20111;-71
2022/10/30 11:49:59;;;;;;;18.33;10.98;;;;;;;;;;4998424;28;20104;-71
2022/10/30 11:52:25;;;;;;;23.63;11.80;;;;;;;;;;4998726;28;20029;-70
2022/10/30 11:54:55;;;;;;;21.98;11.48;;;;;;;;;;4999043;28;20036;-70
2022/10/30 11:57:21;;;;;;;23.65;11.88;;;;;;;;;;4997869;28;20085;-68
2022/10/30 11:59:47;;;;;;;23.35;11.73;;;;;;;;;;4997660;28;20460;-68
2022/10/30 12:02:19;;;;;;;20.90;11.00;;;;;;;;;;4991984;28;20681;-68
2022/10/30 12:04:44;;;;;;;21.67;11.95;;;;;;;;;;4996305;28;20826;-69
2022/10/30 12:07:13;;;;;;;21.17;11.50;;;;;;;;;;4994498;28;20029;-69
2022/10/30 12:09:45;;;;;;;23.40;12.02;;;;;;;;;;4997020;28;20212;-69
2022/10/30 12:12:11;;;;;;;21.67;12.05;;;;;;;;;;4993646;28;20554;-69
2022/10/30 12:14:37;;;;;;;25.55;11.63;;;;;;;;;;5012600;28;20025;-69
2022/10/30 12:17:03;;;;;;;26.05;12.07;;;;;;;;;;4999128;28;20072;-68
2022/10/30 12:19:30;;;;;;;22.77;11.80;;;;;;;;;;4999429;28;20033;-68
2022/10/30 12:21:56;;;;;;;24.83;13.30;;;;;;;;;;4999463;28;20037;-68
2022/10/30 12:24:31;;;;;;;22.48;12.50;;;;;;;;;;4998962;28;20033;-68
2022/10/30 12:27:00;;;;;;;22.63;12.95;;;;;;;;;;4999831;28;20827;-69
2022/10/30 12:29:44;;;;;;;23.42;12.57;;;;;;;;;;4999293;28;20128;-69
2022/10/30 12:32:14;;;;;;;26.33;13.73;;;;;;;;;;4999753;28;20040;-69
2022/10/30 12:34:40;;;;;;;27.15;13.48;;;;;;;;;;4997539;28;20029;-69
2022/10/30 12:37:26;;;;;;;27.98;13.48;;;;;;;;;;4999515;28;20134;-69
2022/10/30 12:40:00;;;;;;;26.15;12.70;;;;;;;;;;4979105;28;20529;-70
2022/10/30 12:42:26;;;;;;;22.67;13.32;;;;;;;;;;4980033;28;20041;-71
2022/10/30 12:45:10;;;;;;;25.17;13.85;;;;;;;;;;4979284;28;20095;-70
2022/10/30 12:47:39;;;;;;;31.35;14.38;;;;;;;;;;4993408;28;22351;-70
2022/10/30 12:50:13;;;;;;;25.00;14.32;;;;;;;;;;4979472;28;20030;-69
2022/10/30 12:52:50;;;;;;;25.58;13.57;;;;;;;;;;4986250;28;20099;-69
2022/10/30 12:55:28;;;;;;;22.23;14.07;;;;;;;;;;4997886;28;20169;-70
2022/10/30 12:58:08;;;;;;;29.20;14.20;;;;;;;;;;4998196;28;20099;-70
2022/10/30 13:00:49;;;;;;;24.40;13.18;;;;;;;;;;4996055;28;20041;-70
2022/10/30 13:03:30;;;;;;;24.45;14.23;;;;;;;;;;4997058;28;20029;-70
2022/10/30 13:06:04;;;;;;;23.95;13.57;;;;;;;;;;4997020;28;20040;-70
2022/10/30 13:08:51;;;;;;;21.52;12.40;;;;;;;;;;4977735;28;20039;-67
2022/10/30 13:11:38;;;;;;;23.35;12.80;;;;;;;;;;5000031;28;20145;-67
2022/10/30 13:14:06;;;;;;;25.30;12.70;;;;;;;;;;5000030;28;20021;-68
2022/10/30 13:16:31;;;;;;;22.23;11.88;;;;;;;;;;5002272;28;20045;-67
2022/10/30 13:18:59;;;;;;;24.33;12.57;;;;;;;;;;5014797;28;20591;-68
2022/10/30 13:21:24;;;;;;;21.88;11.80;;;;;;;;;;4999661;28;20772;-68
2022/10/30 13:24:04;;;;;;;26.48;12.43;;;;;;;;;;5001023;28;20033;-67
2022/10/30 13:26:51;;;;;;;24.05;11.48;;;;;;;;;;4998628;28;20033;-67
2022/10/30 13:29:42;;;;;;;21.45;11.35;;;;;;;;;;5000626;28;20061;-67
2022/10/30 13:32:37;;;;;;;21.77;11.43;;;;;;;;;;4994421;28;20030;-69
2022/10/30 13:35:24;;;;;;;31.20;16.75;;;;;;;;;;4999363;28;20181;-69
2022/10/30 13:38:01;;;;;;;37.10;22.58;;;;;;;;;;4998099;28;20037;-70
2022/10/30 13:40:29;;;;;;;37.65;25.42;;;;;;;;;;5000912;28;20184;-70
2022/10/30 13:42:55;;;;;;;38.05;24.23;;;;;;;;;;4986742;28;20053;-68
2022/10/30 13:45:30;;;;;;;32.08;18.25;;;;;;;;;;4999397;28;20041;-68
2022/10/30 13:48:01;;;;;;;34.72;18.67;;;;;;;;;;4998234;28;20033;-67
2022/10/30 13:50:32;;;;;;;30.30;14.95;;;;;;;;;;4999383;28;20033;-67
2022/10/30 13:53:00;;;;;;;28.77;13.23;;;;;;;;;;4998864;28;20835;-67
2022/10/30 13:55:31;;;;;;;26.67;16.35;;;;;;;;;;5000767;28;20045;-68
2022/10/30 13:58:05;;;;;;;26.48;13.93;;;;;;;;;;4992110;28;20052;-67
2022/10/30 14:00:45;;;;;;;24.77;12.35;;;;;;;;;;4999340;28;20376;-68
2022/10/30 14:03:22;;;;;;;18.48;10.30;;;;;;;;;;4998790;28;20060;-68
2022/10/30 14:05:56;;;;;;;21.70;11.10;;;;;;;;;;4997834;28;20524;-67
2022/10/30 14:08:34;;;;;;;25.35;11.95;;;;;;;;;;4998289;28;20420;-67
2022/10/30 14:11:00;;;;;;;21.30;11.32;;;;;;;;;;4998156;28;20436;-67
2022/10/30 14:13:45;;;;;;;26.83;12.38;;;;;;;;;;4998841;28;20033;-67
2022/10/30 14:16:29;;;;;;;20.08;12.57;;;;;;;;;;4983557;28;20362;-67
2022/10/30 14:19:01;;;;;;;24.98;13.75;;;;;;;;;;4997560;28;20788;-67
2022/10/30 14:21:30;;;;;;;28.52;14.02;;;;;;;;;;4997346;28;20267;-67
2022/10/30 14:24:11;;;;;;;29.30;13.90;;;;;;;;;;4998148;28;20044;-68
2022/10/30 14:26:37;;;;;;;32.22;14.38;;;;;;;;;;4997469;28;20435;-67
2022/10/30 14:29:21;;;;;;;27.70;14.52;;;;;;;;;;4997794;28;20040;-67